createdAt,value
2019-05-05T00:02:35.673Z,99.90
2019-05-05T00:05:24.615Z,99.90
2019-05-05T00:07:54.293Z,99.90
2019-05-05T00:10:30.907Z,99.90
2019-05-05T00:13:14.943Z,99.90
2019-05-05T00:16:10.065Z,99.90
2019-05-05T00:18:39.573Z,99.90
2019-05-05T00:21:09.005Z,99.90
2019-05-05T00:23:38.511Z,99.90
2019-05-05T00:26:07.972Z,99.90
2019-05-05T00:28:37.445Z,99.90
2019-05-05T00:31:06.915Z,99.90
2019-05-05T00:33:36.381Z,99.90
2019-05-05T00:36:07.876Z,99.90
2019-05-05T00:38:37.174Z,99.90
2019-05-05T00:41:06.730Z,99.90
2019-05-05T00:43:36.173Z,99.90
2019-05-05T00:46:11.488Z,99.90
2019-05-05T00:48:44.499Z,99.90
2019-05-05T00:51:15.123Z,99.90
2019-05-05T00:53:45.000Z,99.90
2019-05-05T00:56:14.598Z,99.90
2019-05-05T00:58:49.470Z,99.90
2019-05-05T01:01:42.332Z,99.90
2019-05-05T01:04:14.549Z,99.90
2019-05-05T01:06:45.051Z,99.90
2019-05-05T01:09:18.756Z,99.90
2019-05-05T01:11:48.215Z,99.90
2019-05-05T01:14:17.902Z,99.90
2019-05-05T01:16:47.330Z,99.90
2019-05-05T01:19:16.722Z,99.90
2019-05-05T01:21:46.157Z,99.90
2019-05-05T01:24:15.749Z,99.90
2019-05-05T01:26:45.150Z,99.90
2019-05-05T01:29:15.050Z,99.90
2019-05-05T01:31:45.266Z,99.90
2019-05-05T01:34:29.274Z,99.90
2019-05-05T01:37:07.441Z,99.90
2019-05-05T01:39:54.279Z,99.90
2019-05-05T01:42:24.804Z,99.90
2019-05-05T01:44:55.251Z,99.90
2019-05-05T01:47:25.497Z,99.90
2019-05-05T01:49:55.043Z,99.90
2019-05-05T01:52:25.473Z,99.90
2019-05-05T01:54:55.101Z,99.90
2019-05-05T01:57:25.260Z,99.90
2019-05-05T01:59:55.426Z,99.90
2019-05-05T02:02:25.218Z,99.90
2019-05-05T02:04:55.308Z,99.90
2019-05-05T02:07:25.231Z,99.90
2019-05-05T02:09:55.338Z,99.90
2019-05-05T02:12:25.101Z,99.90
2019-05-05T02:14:55.170Z,99.90
2019-05-05T02:17:24.934Z,99.90
2019-05-05T02:19:55.041Z,99.90
2019-05-05T02:22:25.259Z,99.90
2019-05-05T02:24:55.239Z,99.90
2019-05-05T02:27:25.370Z,99.90
2019-05-05T02:30:06.568Z,99.90
2019-05-05T02:32:45.188Z,99.90
2019-05-05T02:35:16.746Z,99.90
2019-05-05T02:37:46.753Z,99.90
2019-05-05T02:40:17.007Z,99.90
2019-05-05T02:42:47.640Z,99.90
2019-05-05T02:46:09.808Z,99.90
2019-05-05T02:48:39.546Z,99.90
2019-05-05T02:51:09.542Z,99.90
2019-05-05T02:53:44.519Z,99.90
2019-05-05T02:56:20.723Z,99.90
2019-05-05T02:58:53.731Z,99.90
2019-05-05T03:01:34.107Z,99.90
2019-05-05T03:04:04.028Z,99.90
2019-05-05T03:06:34.331Z,99.90
2019-05-05T03:09:05.323Z,99.90
2019-05-05T03:11:35.540Z,99.90
2019-05-05T03:14:06.861Z,99.90
2019-05-05T03:16:38.592Z,99.90
2019-05-05T03:19:09.165Z,99.90
2019-05-05T03:21:39.493Z,99.90
2019-05-05T03:24:09.971Z,99.90
2019-05-05T03:26:40.533Z,99.90
2019-05-05T03:29:14.367Z,99.90
2019-05-05T03:31:45.811Z,99.90
2019-05-05T03:34:16.578Z,99.90
2019-05-05T03:36:46.626Z,99.90
2019-05-05T03:39:27.175Z,99.90
2019-05-05T03:42:06.943Z,99.90
2019-05-05T03:44:40.442Z,99.90
2019-05-05T03:47:10.187Z,99.90
2019-05-05T03:49:39.669Z,99.90
2019-05-05T03:52:09.645Z,99.90
2019-05-05T03:54:39.294Z,99.90
2019-05-05T03:57:09.270Z,99.90
2019-05-05T03:59:41.449Z,99.90
2019-05-05T04:02:20.302Z,99.90
2019-05-05T04:04:51.006Z,99.90
2019-05-05T04:07:20.640Z,99.90
2019-05-05T04:09:50.428Z,99.90
2019-05-05T04:12:19.985Z,99.90
2019-05-05T04:14:51.052Z,99.90
2019-05-05T04:17:33.636Z,99.90
2019-05-05T04:20:24.190Z,99.90
2019-05-05T04:22:54.629Z,99.90
2019-05-05T04:25:24.970Z,99.90
2019-05-05T04:27:54.376Z,99.90
2019-05-05T04:30:23.861Z,99.90
2019-05-05T04:32:54.537Z,99.90
2019-05-05T04:35:24.741Z,99.90
2019-05-05T04:37:54.524Z,99.90
2019-05-05T04:40:24.273Z,99.90
2019-05-05T04:42:54.681Z,99.90
2019-05-05T04:45:24.415Z,99.90
2019-05-05T04:48:00.410Z,99.90
2019-05-05T04:50:48.803Z,99.90
2019-05-05T04:53:24.104Z,99.90
2019-05-05T04:55:53.935Z,99.90
2019-05-05T04:58:24.240Z,99.90
2019-05-05T05:00:54.690Z,99.90
2019-05-05T05:03:49.334Z,99.90
2019-05-05T05:06:23.905Z,99.90
2019-05-05T05:08:53.647Z,99.90
2019-05-05T05:11:24.652Z,99.90
2019-05-05T05:13:54.528Z,99.90
2019-05-05T05:16:24.285Z,99.90
2019-05-05T05:18:53.841Z,99.90
2019-05-05T05:21:23.766Z,99.90
2019-05-05T05:23:53.724Z,99.90
2019-05-05T05:26:24.246Z,99.90
2019-05-05T05:28:53.949Z,99.90
2019-05-05T05:31:24.459Z,99.90
2019-05-05T05:33:54.886Z,99.90
2019-05-05T05:36:24.860Z,99.90
2019-05-05T05:38:57.074Z,99.90
2019-05-05T05:41:46.125Z,99.90
2019-05-05T05:44:34.205Z,99.90
2019-05-05T05:47:11.055Z,99.90
2019-05-05T05:49:44.175Z,99.90
2019-05-05T05:52:19.056Z,99.90
2019-05-05T05:54:44.969Z,99.90
2019-05-05T05:57:14.384Z,99.90
2019-05-05T05:59:44.463Z,99.90
2019-05-05T06:02:15.660Z,99.90
2019-05-05T06:04:45.314Z,99.90
2019-05-05T06:07:14.739Z,99.90
2019-05-05T06:09:56.753Z,99.90
2019-05-05T06:12:26.241Z,99.90
2019-05-05T06:14:55.773Z,99.90
2019-05-05T06:17:25.350Z,99.90
2019-05-05T06:19:54.839Z,99.90
2019-05-05T06:22:29.221Z,99.90
2019-05-05T06:24:55.600Z,99.90
2019-05-05T06:27:25.094Z,99.90
2019-05-05T06:29:54.567Z,99.90
2019-05-05T06:32:24.091Z,99.90
2019-05-05T06:34:53.610Z,99.90
2019-05-05T06:37:23.795Z,99.90
2019-05-05T06:39:55.830Z,99.90
2019-05-05T06:42:43.532Z,99.90
2019-05-05T06:45:29.318Z,99.90
2019-05-05T06:48:04.208Z,99.90
2019-05-05T06:50:34.496Z,99.90
2019-05-05T06:53:04.420Z,99.90
2019-05-05T06:55:34.179Z,99.90
2019-05-05T06:58:04.618Z,99.90
2019-05-05T07:00:34.649Z,99.90
2019-05-05T07:03:07.722Z,99.90
2019-05-05T07:05:35.576Z,99.90
2019-05-05T07:08:05.171Z,99.90
2019-05-05T07:10:34.714Z,99.90
2019-05-05T07:13:04.963Z,99.90
2019-05-05T07:15:34.736Z,99.90
2019-05-05T07:18:04.458Z,99.90
2019-05-05T07:20:34.668Z,99.90
2019-05-05T07:23:05.322Z,99.90
2019-05-05T07:25:42.963Z,99.90
2019-05-05T07:28:06.481Z,99.90
2019-05-05T07:30:35.969Z,99.90
2019-05-05T07:33:05.509Z,99.90
2019-05-05T07:35:55.486Z,99.90
2019-05-05T07:38:14.280Z,99.90
2019-05-05T07:40:43.965Z,99.90
2019-05-05T07:43:14.644Z,99.90
2019-05-05T07:45:44.660Z,99.90
2019-05-05T07:48:14.405Z,99.90
2019-05-05T07:50:58.210Z,99.90
2019-05-05T07:53:17.853Z,99.90
2019-05-05T07:55:46.361Z,99.90
2019-05-05T07:58:15.990Z,99.90
2019-05-05T08:00:45.529Z,99.90
2019-05-05T08:03:15.012Z,99.90
2019-05-05T08:05:44.791Z,99.90
2019-05-05T08:08:15.045Z,99.90
2019-05-05T08:10:44.675Z,99.90
2019-05-05T08:13:14.287Z,99.90
2019-05-05T08:15:56.953Z,99.90
2019-05-05T08:18:26.813Z,99.90
2019-05-05T08:20:58.763Z,99.90
2019-05-05T08:23:44.771Z,99.90
2019-05-05T08:26:35.694Z,99.90
2019-05-05T08:29:30.472Z,99.90
2019-05-05T08:32:06.120Z,99.90
2019-05-05T08:34:35.872Z,99.90
2019-05-05T08:37:05.457Z,99.90
2019-05-05T08:39:34.995Z,99.90
2019-05-05T08:42:04.865Z,99.90
2019-05-05T08:44:35.345Z,99.90
2019-05-05T08:47:05.194Z,99.90
2019-05-05T08:49:34.879Z,99.90
2019-05-05T08:52:04.577Z,99.90
2019-05-05T08:54:34.508Z,99.90
2019-05-05T08:57:04.536Z,99.90
2019-05-05T08:59:34.174Z,98.70
2019-05-05T09:02:04.570Z,99.60
2019-05-05T09:04:34.525Z,99.50
2019-05-05T09:07:05.059Z,99.40
2019-05-05T09:09:34.893Z,98.10
2019-05-05T09:12:04.782Z,96.60
2019-05-05T09:14:34.670Z,97.10
2019-05-05T09:17:04.648Z,96.40
2019-05-05T09:19:34.582Z,95.50
2019-05-05T09:22:06.741Z,94.70
2019-05-05T09:24:53.672Z,94.40
2019-05-05T09:27:34.311Z,94.60
2019-05-05T09:30:04.420Z,93.00
2019-05-05T09:32:34.496Z,91.80
2019-05-05T09:35:04.854Z,91.20
2019-05-05T09:37:34.576Z,91.50
2019-05-05T09:40:04.748Z,92.10
2019-05-05T09:42:34.458Z,92.40
2019-05-05T09:45:04.883Z,92.30
2019-05-05T09:47:34.541Z,92.70
2019-05-05T09:50:04.443Z,92.10
2019-05-05T09:52:34.179Z,90.60
2019-05-05T09:55:04.014Z,88.70
2019-05-05T09:57:34.412Z,85.20
2019-05-05T10:00:10.619Z,84.80
2019-05-05T10:02:40.172Z,85.10
2019-05-05T10:05:10.201Z,86.70
2019-05-05T10:07:40.835Z,88.60
2019-05-05T10:10:10.517Z,86.90
2019-05-05T10:12:40.101Z,88.10
2019-05-05T10:15:09.858Z,82.40
2019-05-05T10:17:39.741Z,76.40
2019-05-05T10:20:09.831Z,74.60
2019-05-05T10:22:39.629Z,73.40
2019-05-05T10:25:28.161Z,71.50
2019-05-05T10:27:58.376Z,69.70
2019-05-05T10:30:28.290Z,70.20
2019-05-05T10:32:58.350Z,69.60
2019-05-05T10:35:31.788Z,70.20
2019-05-05T10:38:01.597Z,69.40
2019-05-05T10:40:34.516Z,68.30
2019-05-05T10:43:04.830Z,67.70
2019-05-05T10:45:37.726Z,64.90
2019-05-05T10:48:11.220Z,65.90
2019-05-05T10:50:40.856Z,70.20
2019-05-05T10:53:10.487Z,67.50
2019-05-05T10:55:40.149Z,66.60
2019-05-05T10:58:09.968Z,61.80
2019-05-05T11:00:45.402Z,60.00
2019-05-05T11:03:15.337Z,58.90
2019-05-05T11:05:45.325Z,54.20
2019-05-05T11:08:15.451Z,53.60
2019-05-05T11:10:45.315Z,52.40
2019-05-05T11:13:15.336Z,51.90
2019-05-05T11:15:45.064Z,51.30
2019-05-05T11:18:15.205Z,52.40
2019-05-05T11:20:45.077Z,52.10
2019-05-05T11:23:15.351Z,52.60
2019-05-05T11:25:45.254Z,53.80
2019-05-05T11:28:14.903Z,52.10
2019-05-05T11:30:45.764Z,49.20
2019-05-05T11:33:41.169Z,51.00
2019-05-05T11:36:38.942Z,51.40
2019-05-05T11:39:09.287Z,52.40
2019-05-05T11:41:39.142Z,53.70
2019-05-05T11:44:08.791Z,54.60
2019-05-05T11:46:38.714Z,54.90
2019-05-05T11:49:08.795Z,54.20
2019-05-05T11:51:38.682Z,52.10
2019-05-05T11:54:08.327Z,50.40
2019-05-05T11:56:38.012Z,50.60
2019-05-05T11:59:07.761Z,51.00
2019-05-05T12:01:37.623Z,50.80
2019-05-05T12:04:09.734Z,51.30
2019-05-05T12:06:39.324Z,50.30
2019-05-05T12:09:16.335Z,50.60
2019-05-05T12:11:45.945Z,54.30
2019-05-05T12:14:17.257Z,55.60
2019-05-05T12:16:46.842Z,56.00
2019-05-05T12:19:16.796Z,56.20
2019-05-05T12:21:46.442Z,54.50
2019-05-05T12:24:21.608Z,54.60
2019-05-05T12:27:14.130Z,53.60
2019-05-05T12:30:03.945Z,53.40
2019-05-05T12:32:34.829Z,51.40
2019-05-05T12:35:04.879Z,51.60
2019-05-05T12:37:37.892Z,50.00
2019-05-05T12:40:07.988Z,50.30
2019-05-05T12:42:37.592Z,51.80
2019-05-05T12:45:09.670Z,52.90
2019-05-05T12:47:57.341Z,52.60
2019-05-05T12:50:27.124Z,52.60
2019-05-05T12:52:56.735Z,54.60
2019-05-05T12:55:38.941Z,55.10
2019-05-05T12:57:57.637Z,55.40
2019-05-05T13:00:27.225Z,55.60
2019-05-05T13:02:56.873Z,55.30
2019-05-05T13:05:26.539Z,54.60
2019-05-05T13:07:56.208Z,53.10
2019-05-05T13:10:26.119Z,54.30
2019-05-05T13:12:55.774Z,53.90
2019-05-05T13:15:25.381Z,53.70
2019-05-05T13:17:55.135Z,53.70
2019-05-05T13:20:30.862Z,54.20
2019-05-05T13:23:27.056Z,56.10
2019-05-05T13:26:19.027Z,56.60
2019-05-05T13:28:48.803Z,56.70
2019-05-05T13:31:21.583Z,56.60
2019-05-05T13:33:49.993Z,56.40
2019-05-05T13:36:19.572Z,56.80
2019-05-05T13:38:51.947Z,57.20
2019-05-05T13:41:20.462Z,57.20
2019-05-05T13:43:50.054Z,57.90
2019-05-05T13:46:30.070Z,57.50
2019-05-05T13:49:23.930Z,57.40
2019-05-05T13:51:54.054Z,57.70
2019-05-05T13:54:24.339Z,57.50
2019-05-05T13:56:54.056Z,58.00
2019-05-05T13:59:25.524Z,58.40
2019-05-05T14:01:54.884Z,57.80
2019-05-05T14:04:24.749Z,57.30
2019-05-05T14:06:54.420Z,57.60
2019-05-05T14:09:24.182Z,58.30
2019-05-05T14:11:53.865Z,58.00
2019-05-05T14:14:24.223Z,58.10
2019-05-05T14:16:53.987Z,57.40
2019-05-05T14:19:24.834Z,57.40
2019-05-05T14:21:54.603Z,57.50
2019-05-05T14:24:31.007Z,57.70
2019-05-05T14:27:00.553Z,57.50
2019-05-05T14:29:44.862Z,57.30
2019-05-05T14:32:16.516Z,56.60
2019-05-05T14:34:50.525Z,56.50
2019-05-05T14:37:29.290Z,56.00
2019-05-05T14:39:58.880Z,56.20
2019-05-05T14:42:28.448Z,56.90
2019-05-05T14:44:58.024Z,57.10
2019-05-05T14:47:30.161Z,56.60
2019-05-05T14:49:59.851Z,55.90
2019-05-05T14:52:29.374Z,56.30
2019-05-05T14:54:58.920Z,56.00
2019-05-05T14:57:28.403Z,56.90
2019-05-05T14:59:57.915Z,56.50
2019-05-05T15:02:27.464Z,55.90
2019-05-05T15:04:59.540Z,56.20
2019-05-05T15:07:44.421Z,56.20
2019-05-05T15:10:36.070Z,55.20
2019-05-05T15:13:08.059Z,54.60
2019-05-05T15:15:37.725Z,55.50
2019-05-05T15:18:07.287Z,54.70
2019-05-05T15:20:36.977Z,54.60
2019-05-05T15:23:06.492Z,54.80
2019-05-05T15:25:36.170Z,55.10
2019-05-05T15:28:05.748Z,55.30
2019-05-05T15:30:35.249Z,55.70
2019-05-05T15:33:05.008Z,55.60
2019-05-05T15:35:34.614Z,55.70
2019-05-05T15:38:04.553Z,56.40
2019-05-05T15:40:37.237Z,56.70
2019-05-05T15:43:06.897Z,55.80
2019-05-05T15:45:36.689Z,55.50
2019-05-05T15:48:06.356Z,55.00
2019-05-05T15:50:36.082Z,55.20
2019-05-05T15:53:05.611Z,55.80
2019-05-05T15:55:35.368Z,56.10
2019-05-05T15:58:05.209Z,55.90
2019-05-05T16:00:34.997Z,55.70
2019-05-05T16:03:07.203Z,56.00
2019-05-05T16:05:36.245Z,55.10
2019-05-05T16:08:05.953Z,55.60
2019-05-05T16:10:35.453Z,55.80
2019-05-05T16:13:05.034Z,55.80
2019-05-05T16:15:55.736Z,55.90
2019-05-05T16:18:30.534Z,55.30
2019-05-05T16:21:07.916Z,55.70
2019-05-05T16:23:43.676Z,55.00
2019-05-05T16:26:13.908Z,55.00
2019-05-05T16:28:45.073Z,54.80
2019-05-05T16:31:14.641Z,54.60
2019-05-05T16:33:44.448Z,54.00
2019-05-05T16:36:13.997Z,54.60
2019-05-05T16:38:43.753Z,54.40
2019-05-05T16:41:15.335Z,53.90
2019-05-05T16:43:45.201Z,54.40
2019-05-05T16:46:17.112Z,53.80
2019-05-05T16:48:46.136Z,53.70
2019-05-05T16:51:17.687Z,54.30
2019-05-05T16:53:47.196Z,54.50
2019-05-05T16:56:16.936Z,53.00
2019-05-05T16:58:46.515Z,53.00
2019-05-05T17:01:17.067Z,53.30
2019-05-05T17:03:46.716Z,52.70
2019-05-05T17:06:16.490Z,51.90
2019-05-05T17:08:46.198Z,52.10
2019-05-05T17:11:15.793Z,51.50
2019-05-05T17:13:50.605Z,52.70
2019-05-05T17:16:38.036Z,51.80
2019-05-05T17:19:29.751Z,52.00
2019-05-05T17:22:15.172Z,52.30
2019-05-05T17:24:44.713Z,52.60
2019-05-05T17:27:14.344Z,52.90
2019-05-05T17:29:44.126Z,52.90
2019-05-05T17:32:13.962Z,53.00
2019-05-05T17:34:44.879Z,53.50
2019-05-05T17:37:14.668Z,53.60
2019-05-05T17:39:51.100Z,53.50
2019-05-05T17:42:38.717Z,53.60
2019-05-05T17:45:26.560Z,54.30
2019-05-05T17:48:23.690Z,54.30
2019-05-05T17:50:59.717Z,54.20
2019-05-05T17:53:35.020Z,53.40
2019-05-05T17:56:05.781Z,53.50
2019-05-05T17:58:35.273Z,54.50
2019-05-05T18:01:04.945Z,54.30
2019-05-05T18:03:34.428Z,54.60
2019-05-05T18:06:29.205Z,54.90
2019-05-05T18:09:20.912Z,56.30
2019-05-05T18:12:24.845Z,55.00
2019-05-05T18:14:55.787Z,55.20
2019-05-05T18:17:25.465Z,55.80
2019-05-05T18:19:55.260Z,56.60
2019-05-05T18:22:24.826Z,56.80
2019-05-05T18:24:54.390Z,57.50
2019-05-05T18:27:23.880Z,57.60
2019-05-05T18:29:54.476Z,57.30
2019-05-05T18:32:24.183Z,58.20
2019-05-05T18:34:54.530Z,59.40
2019-05-05T18:37:24.316Z,58.50
2019-05-05T18:39:54.597Z,58.90
2019-05-05T18:42:24.946Z,58.70
2019-05-05T18:44:58.525Z,57.90
2019-05-05T18:47:28.077Z,58.50
2019-05-05T18:49:57.564Z,58.90
2019-05-05T18:52:27.138Z,60.00
2019-05-05T18:54:56.707Z,60.00
2019-05-05T18:57:26.284Z,60.80
2019-05-05T18:59:55.803Z,61.00
2019-05-05T19:02:56.432Z,60.70
2019-05-05T19:05:37.626Z,60.00
2019-05-05T19:08:09.738Z,61.40
2019-05-05T19:10:39.360Z,61.30
2019-05-05T19:13:08.845Z,61.30
2019-05-05T19:15:38.375Z,62.70
2019-05-05T19:18:07.997Z,61.90
2019-05-05T19:20:44.887Z,62.30
2019-05-05T19:23:14.792Z,62.50
2019-05-05T19:25:45.005Z,62.60
2019-05-05T19:28:14.595Z,61.50
2019-05-05T19:30:44.251Z,61.00
2019-05-05T19:33:15.504Z,61.20
2019-05-05T19:35:47.251Z,62.20
2019-05-05T19:38:16.637Z,61.60
2019-05-05T19:40:46.159Z,61.80
2019-05-05T19:43:15.913Z,61.80
2019-05-05T19:45:45.495Z,62.00
2019-05-05T19:48:15.113Z,61.70
2019-05-05T19:50:57.687Z,62.30
2019-05-05T19:53:27.398Z,62.30
2019-05-05T19:55:56.901Z,62.20
2019-05-05T19:58:26.393Z,62.20
2019-05-05T20:01:00.120Z,62.20
2019-05-05T20:03:29.791Z,62.30
2019-05-05T20:05:59.501Z,62.30
2019-05-05T20:08:40.487Z,62.50
2019-05-05T20:11:00.480Z,62.70
2019-05-05T20:13:30.126Z,62.50
2019-05-05T20:16:24.150Z,62.70
2019-05-05T20:18:54.659Z,62.50
2019-05-05T20:21:24.473Z,62.70
2019-05-05T20:23:54.318Z,63.60
2019-05-05T20:26:23.997Z,63.70
2019-05-05T20:28:55.460Z,63.90
2019-05-05T20:31:25.140Z,64.20
2019-05-05T20:34:07.619Z,63.90
2019-05-05T20:36:44.956Z,64.60
2019-05-05T20:39:14.664Z,65.00
2019-05-05T20:41:44.312Z,65.60
2019-05-05T20:44:13.940Z,65.70
2019-05-05T20:46:44.028Z,66.10
2019-05-05T20:49:14.432Z,66.60
2019-05-05T20:51:44.486Z,66.90
2019-05-05T20:54:14.338Z,67.80
2019-05-05T20:56:44.562Z,69.50
2019-05-05T20:59:27.502Z,69.70
2019-05-05T21:01:45.563Z,70.20
2019-05-05T21:04:15.162Z,70.60
2019-05-05T21:06:44.827Z,70.70
2019-05-05T21:09:14.381Z,71.20
2019-05-05T21:11:44.045Z,71.20
2019-05-05T21:14:14.800Z,70.90
2019-05-05T21:16:44.740Z,72.30
2019-05-05T21:19:14.383Z,73.50
2019-05-05T21:21:47.065Z,74.30
2019-05-05T21:24:16.755Z,74.90
2019-05-05T21:27:05.498Z,75.40
2019-05-05T21:29:41.534Z,75.90
2019-05-05T21:32:06.389Z,76.50
2019-05-05T21:34:36.009Z,76.90
2019-05-05T21:37:05.728Z,76.80
2019-05-05T21:39:35.487Z,77.80
2019-05-05T21:42:05.096Z,76.00
2019-05-05T21:44:34.752Z,75.10
2019-05-05T21:47:04.473Z,74.30
2019-05-05T21:49:34.011Z,73.30
2019-05-05T21:52:14.228Z,75.60
2019-05-05T21:54:56.296Z,76.20
2019-05-05T21:57:44.944Z,76.50
2019-05-05T22:00:41.099Z,78.00
2019-05-05T22:03:11.564Z,78.00
2019-05-05T22:05:41.134Z,78.00
2019-05-05T22:08:10.762Z,77.70
2019-05-05T22:10:40.422Z,76.30
2019-05-05T22:13:10.053Z,75.20
2019-05-05T22:15:39.705Z,74.90
2019-05-05T22:18:09.245Z,74.80
2019-05-05T22:20:44.206Z,76.00
2019-05-05T22:23:14.520Z,75.30
2019-05-05T22:25:44.320Z,75.30
2019-05-05T22:28:14.024Z,75.30
2019-05-05T22:30:43.838Z,75.20
2019-05-05T22:33:13.835Z,75.10
2019-05-05T22:35:44.225Z,75.30
2019-05-05T22:38:13.910Z,75.20
2019-05-05T22:40:44.135Z,76.00
2019-05-05T22:43:14.496Z,75.20
2019-05-05T22:45:45.076Z,75.30
2019-05-05T22:48:14.828Z,75.30
2019-05-05T22:50:44.459Z,75.60
2019-05-05T22:53:16.159Z,75.40
2019-05-05T22:55:45.471Z,75.20
2019-05-05T22:58:15.019Z,75.70
2019-05-05T23:00:44.856Z,76.10
2019-05-05T23:03:29.952Z,76.50
2019-05-05T23:06:04.352Z,76.80
2019-05-05T23:08:35.014Z,77.10
2019-05-05T23:11:05.013Z,77.40
2019-05-05T23:13:34.620Z,77.70
2019-05-05T23:16:20.393Z,77.70
2019-05-05T23:18:50.149Z,77.80
2019-05-05T23:21:43.794Z,78.20
2019-05-05T23:24:30.961Z,78.20
2019-05-05T23:27:00.606Z,77.90
2019-05-05T23:29:30.178Z,78.30
2019-05-05T23:31:59.594Z,79.00
2019-05-05T23:34:28.993Z,79.00
2019-05-05T23:36:58.405Z,79.00
2019-05-05T23:39:27.828Z,79.20
2019-05-05T23:41:57.520Z,79.40
2019-05-05T23:44:26.942Z,79.70
2019-05-05T23:46:56.415Z,80.00
2019-05-05T23:49:25.833Z,80.40
2019-05-05T23:51:55.228Z,81.20
2019-05-05T23:54:24.941Z,80.70
2019-05-05T23:56:54.602Z,80.90
2019-05-05T23:59:24.290Z,81.10
